Search for airport 
image banner adimage banner adimage banner ad
image banner ad

KNSI - San Nicolas Island Nolf

Located in San Nicolas Island, United States

ICAO - NSI, IATA -

Data provided by Airmate  

General information

Coordinates: N33°14'23" W119°27'30"
Elevation is 506 feet MSL.
Magnetic variation is 12° East
View others Airports in California

Operational data

Special qualification required
Current time UTC:
Current local time:
Weather
METAR: KNSI 150853Z AUTO 30026G34KT 10SM CLR 16/11 A2988 RMK AO2 PK WND 30036/0833 SLP113 T01560106 56009 $
View NOTAMs / SUP AIP / TFR affecting this airport [VIEW]
Communications frequencies: [VIEW]

Runways:

RWY identifierQFULength (ft)Width (ft)SurfaceLDA (ft)
1210002200OTHER
3010002200OTHER

Airport contact information

Address: San Nicolas Island United States

Satellite view of KNSI